createdAt,value
2023-02-27T00:00:07.300Z,-0.31
2023-02-27T00:01:07.326Z,-0.34
2023-02-27T00:02:07.292Z,-0.34
2023-02-27T00:03:07.268Z,-0.36
2023-02-27T00:04:07.299Z,-0.36
2023-02-27T00:05:07.258Z,-0.36
2023-02-27T00:06:07.226Z,-0.39
2023-02-27T00:07:07.556Z,-0.37
2023-02-27T00:08:07.204Z,-0.39
2023-02-27T00:09:07.247Z,-0.42
2023-02-27T00:10:07.193Z,-0.45
2023-02-27T00:11:07.185Z,-0.45
2023-02-27T00:12:07.196Z,-0.44
2023-02-27T00:13:07.250Z,-0.45
2023-02-27T00:14:07.461Z,-0.45
2023-02-27T00:15:07.189Z,-0.47
2023-02-27T00:16:07.164Z,-0.50
2023-02-27T00:17:07.105Z,-0.50
2023-02-27T00:18:07.105Z,-0.50
2023-02-27T00:19:07.160Z,-0.55
2023-02-27T00:20:07.082Z,-0.51
2023-02-27T00:21:07.391Z,-0.48
2023-02-27T00:22:07.086Z,-0.45
2023-02-27T00:23:07.098Z,-0.45
2023-02-27T00:24:07.053Z,-0.42
2023-02-27T00:25:07.104Z,-0.42
2023-02-27T00:26:07.047Z,-0.47
2023-02-27T00:27:07.065Z,-0.45
2023-02-27T00:28:07.285Z,-0.51
2023-02-27T00:29:06.989Z,-0.52
2023-02-27T00:30:07.019Z,-0.55
2023-02-27T00:31:07.177Z,-0.60
2023-02-27T00:32:07.096Z,-0.62
2023-02-27T00:33:06.971Z,-0.65
2023-02-27T00:34:06.955Z,-0.65
2023-02-27T00:35:07.224Z,-0.63
2023-02-27T00:36:07.017Z,-0.62
2023-02-27T00:37:06.965Z,-0.55
2023-02-27T00:38:06.886Z,-0.51
2023-02-27T00:39:06.886Z,-0.51
2023-02-27T00:40:06.875Z,-0.50
2023-02-27T00:41:06.879Z,-0.52
2023-02-27T00:42:07.168Z,-0.57
2023-02-27T00:43:06.930Z,-0.55
2023-02-27T00:44:06.865Z,-0.57
2023-02-27T00:45:06.845Z,-0.59
2023-02-27T00:46:06.852Z,-0.60
2023-02-27T00:47:06.816Z,-0.62
2023-02-27T00:48:06.807Z,-0.68
2023-02-27T00:49:07.112Z,-0.70
2023-02-27T00:50:06.794Z,-0.75
2023-02-27T00:51:06.785Z,-0.77
2023-02-27T00:52:06.750Z,-0.78
2023-02-27T00:53:06.798Z,-0.77
2023-02-27T00:54:06.729Z,-0.77
2023-02-27T00:55:06.761Z,-0.77
2023-02-27T00:56:07.001Z,-0.80
2023-02-27T00:57:06.707Z,-0.75
2023-02-27T00:58:06.695Z,-0.73
2023-02-27T00:59:06.734Z,-0.73
2023-02-27T01:00:06.686Z,-0.73
2023-02-27T01:01:06.829Z,-0.70
2023-02-27T01:02:06.650Z,-0.75
2023-02-27T01:03:06.958Z,-0.75
2023-02-27T01:04:06.637Z,-0.75
2023-02-27T01:05:06.628Z,-0.73
2023-02-27T01:06:06.639Z,-0.75
2023-02-27T01:07:06.669Z,-0.78
2023-02-27T01:08:06.596Z,-0.78
2023-02-27T01:09:06.618Z,-0.75
2023-02-27T01:10:06.900Z,-0.77
2023-02-27T01:11:06.567Z,-0.73
2023-02-27T01:12:06.564Z,-0.70
2023-02-27T01:13:06.625Z,-0.75
2023-02-27T01:14:06.558Z,-0.69
2023-02-27T01:15:06.585Z,-0.72
2023-02-27T01:16:06.540Z,-0.72
2023-02-27T01:17:06.848Z,-0.72
2023-02-27T01:18:06.505Z,-0.73
2023-02-27T01:19:06.543Z,-0.73
2023-02-27T01:20:06.489Z,-0.75
2023-02-27T01:21:06.462Z,-0.77
2023-02-27T01:22:06.469Z,-0.78
2023-02-27T01:23:06.477Z,-0.83
2023-02-27T01:24:06.737Z,-0.83
2023-02-27T01:25:06.497Z,-0.83
2023-02-27T01:26:06.447Z,-0.84
2023-02-27T01:27:06.421Z,-0.84
2023-02-27T01:28:06.431Z,-0.86
2023-02-27T01:29:06.655Z,-0.86
2023-02-27T01:30:06.394Z,-0.84
2023-02-27T01:31:06.705Z,-0.84
2023-02-27T01:32:06.484Z,-0.86
2023-02-27T01:33:06.347Z,-0.92
2023-02-27T01:34:06.373Z,-0.92
2023-02-27T01:35:06.358Z,-0.92
2023-02-27T01:36:06.319Z,-0.91
2023-02-27T01:37:07.019Z,-0.92
2023-02-27T01:38:06.585Z,-0.95
2023-02-27T01:39:06.284Z,-0.97
2023-02-27T01:40:06.278Z,-0.97
2023-02-27T01:41:06.279Z,-0.99
2023-02-27T01:42:06.275Z,-1.00
2023-02-27T01:43:06.327Z,-0.99
2023-02-27T01:44:06.266Z,-1.02
2023-02-27T01:45:07.571Z,-1.07
2023-02-27T01:46:06.361Z,-1.09
2023-02-27T01:47:06.221Z,-1.15
2023-02-27T01:48:06.194Z,-1.13
2023-02-27T01:49:06.221Z,-1.18
2023-02-27T01:50:06.179Z,-1.20
2023-02-27T01:51:06.177Z,-1.18
2023-02-27T01:52:07.462Z,-1.17
2023-02-27T01:53:06.140Z,-1.18
2023-02-27T01:54:06.148Z,-1.15
2023-02-27T01:55:06.189Z,-1.17
2023-02-27T01:56:06.132Z,-1.23
2023-02-27T01:57:06.104Z,-1.24
2023-02-27T01:58:06.106Z,-1.25
2023-02-27T01:59:06.368Z,-1.25
2023-02-27T02:00:06.106Z,-1.24
2023-02-27T02:01:06.179Z,-1.25
2023-02-27T02:02:06.064Z,-1.25
2023-02-27T02:03:06.045Z,-1.27
2023-02-27T02:04:06.029Z,-1.28
2023-02-27T02:05:06.038Z,-1.25
2023-02-27T02:06:06.315Z,-1.27
2023-02-27T02:07:06.110Z,-1.31
2023-02-27T02:08:06.028Z,-1.35
2023-02-27T02:09:05.993Z,-1.38
2023-02-27T02:10:05.978Z,-1.38
2023-02-27T02:11:05.985Z,-1.39
2023-02-27T02:12:05.965Z,-1.39
2023-02-27T02:13:06.303Z,-1.41
2023-02-27T02:14:05.936Z,-1.43
2023-02-27T02:15:05.914Z,-1.43
2023-02-27T02:16:05.916Z,-1.42
2023-02-27T02:17:05.894Z,-1.38
2023-02-27T02:18:05.913Z,-1.36
2023-02-27T02:19:05.927Z,-1.31
2023-02-27T02:20:06.195Z,-1.30
2023-02-27T02:21:06.765Z,-1.24
2023-02-27T02:22:05.844Z,-1.23
2023-02-27T02:23:05.843Z,-1.23
2023-02-27T02:24:05.836Z,-1.23
2023-02-27T02:25:05.856Z,-1.21
2023-02-27T02:26:05.807Z,-1.23
2023-02-27T02:27:06.104Z,-1.24
2023-02-27T02:28:05.833Z,-1.23
2023-02-27T02:29:05.778Z,-1.23
2023-02-27T02:30:05.769Z,-1.23
2023-02-27T02:31:05.890Z,-1.20
2023-02-27T02:32:05.886Z,-1.21
2023-02-27T02:33:05.750Z,-1.20
2023-02-27T02:34:06.015Z,-1.18
2023-02-27T02:35:05.719Z,-1.18
2023-02-27T02:36:05.711Z,-1.20
2023-02-27T02:37:05.729Z,-1.23
2023-02-27T02:38:05.717Z,-1.20
2023-02-27T02:39:05.704Z,-1.21
2023-02-27T02:40:05.688Z,-1.20
2023-02-27T02:41:05.942Z,-1.20
2023-02-27T02:42:05.669Z,-1.20
2023-02-27T02:43:06.119Z,-1.21
2023-02-27T02:44:05.631Z,-1.23
2023-02-27T02:45:05.622Z,-1.23
2023-02-27T02:46:05.642Z,-1.21
2023-02-27T02:47:05.609Z,-1.23
2023-02-27T02:48:05.861Z,-1.24
2023-02-27T02:49:05.618Z,-1.25
2023-02-27T02:50:05.568Z,-1.24
2023-02-27T02:51:05.586Z,-1.28
2023-02-27T02:52:05.557Z,-1.28
2023-02-27T02:53:05.537Z,-1.30
2023-02-27T02:54:05.544Z,-1.31
2023-02-27T02:55:05.935Z,-1.31
2023-02-27T02:56:05.509Z,-1.31
2023-02-27T02:57:05.491Z,-1.33
2023-02-27T02:58:05.492Z,-1.38
2023-02-27T02:59:05.492Z,-1.38
2023-02-27T03:00:05.476Z,-1.39
2023-02-27T03:01:05.512Z,-1.45
2023-02-27T03:02:05.784Z,-1.43
2023-02-27T03:03:05.444Z,-1.46
2023-02-27T03:04:05.487Z,-1.46
2023-02-27T03:05:05.431Z,-1.51
2023-02-27T03:06:05.427Z,-1.53
2023-02-27T03:07:05.424Z,-1.54
2023-02-27T03:08:05.390Z,-1.57
2023-02-27T03:09:05.666Z,-1.59
2023-02-27T03:10:05.368Z,-1.62
2023-02-27T03:11:05.358Z,-1.63
2023-02-27T03:12:05.355Z,-1.67
2023-02-27T03:13:05.365Z,-1.69
2023-02-27T03:14:05.334Z,-1.72
2023-02-27T03:15:05.336Z,-1.74
2023-02-27T03:16:05.668Z,-1.77
2023-02-27T03:17:05.359Z,-1.78
2023-02-27T03:18:05.297Z,-1.78
2023-02-27T03:19:05.309Z,-1.81
2023-02-27T03:20:05.272Z,-1.81
2023-02-27T03:21:05.283Z,-1.81
2023-02-27T03:22:05.297Z,-1.85
2023-02-27T03:23:05.519Z,-1.84
2023-02-27T03:24:05.255Z,-1.84
2023-02-27T03:25:05.262Z,-1.81
2023-02-27T03:26:05.252Z,-1.80
2023-02-27T03:27:05.199Z,-1.82
2023-02-27T03:28:05.211Z,-1.81
2023-02-27T03:29:05.167Z,-1.84
2023-02-27T03:30:05.457Z,-1.87
2023-02-27T03:31:05.239Z,-1.87
2023-02-27T03:32:05.330Z,-1.84
2023-02-27T03:33:05.125Z,-1.84
2023-02-27T03:34:05.121Z,-1.85
2023-02-27T03:35:05.112Z,-1.87
2023-02-27T03:36:05.099Z,-1.92
2023-02-27T03:37:05.462Z,-1.92
2023-02-27T03:38:05.162Z,-1.93
2023-02-27T03:39:05.169Z,-1.96
2023-02-27T03:40:05.056Z,-1.95
2023-02-27T03:41:05.061Z,-1.93
2023-02-27T03:42:05.053Z,-1.92
2023-02-27T03:43:05.059Z,-1.90
2023-02-27T03:44:05.300Z,-1.90
2023-02-27T03:45:05.025Z,-1.92
2023-02-27T03:46:05.022Z,-1.90
2023-02-27T03:47:05.013Z,-1.90
2023-02-27T03:48:04.983Z,-1.90
2023-02-27T03:49:05.019Z,-1.87
2023-02-27T03:50:04.958Z,-1.85
2023-02-27T03:51:05.233Z,-1.87
2023-02-27T03:52:05.000Z,-1.88
2023-02-27T03:53:04.940Z,-1.92
2023-02-27T03:54:04.940Z,-1.93
2023-02-27T03:55:04.967Z,-1.96
2023-02-27T03:56:04.900Z,-1.95
2023-02-27T03:57:04.888Z,-1.96
2023-02-27T03:58:05.185Z,-1.93
2023-02-27T03:59:04.870Z,-1.92
2023-02-27T04:00:04.885Z,-1.90
2023-02-27T04:01:04.912Z,-1.96
2023-02-27T04:02:04.942Z,-1.93
2023-02-27T04:03:04.935Z,-1.95
2023-02-27T04:04:04.860Z,-1.96
2023-02-27T04:05:04.807Z,-2.00
2023-02-27T04:06:04.806Z,-1.98
2023-02-27T04:07:04.836Z,-1.98
2023-02-27T04:08:04.789Z,-1.96
2023-02-27T04:09:04.764Z,-1.95
2023-02-27T04:10:05.056Z,-1.93
2023-02-27T04:11:04.755Z,-1.92
2023-02-27T04:12:04.791Z,-1.92
2023-02-27T04:13:04.778Z,-1.93
2023-02-27T04:14:04.717Z,-1.96
2023-02-27T04:15:04.700Z,-1.96
2023-02-27T04:16:04.726Z,-1.99
2023-02-27T04:17:04.700Z,-2.00
2023-02-27T04:18:04.700Z,-2.02
2023-02-27T04:19:04.789Z,-2.03
2023-02-27T04:20:04.668Z,-2.05
2023-02-27T04:21:04.647Z,-2.05
2023-02-27T04:22:04.913Z,-2.06
2023-02-27T04:23:04.647Z,-2.06
2023-02-27T04:24:04.620Z,-2.05
2023-02-27T04:25:04.650Z,-2.08
2023-02-27T04:26:04.621Z,-2.11
2023-02-27T04:27:06.870Z,-2.11
2023-02-27T04:28:04.582Z,-2.11
2023-02-27T04:29:04.855Z,-2.11
2023-02-27T04:30:04.560Z,-2.10
2023-02-27T04:31:04.675Z,-2.14
2023-02-27T04:32:04.674Z,-2.14
2023-02-27T04:33:04.539Z,-2.16
2023-02-27T04:34:04.524Z,-2.17
2023-02-27T04:35:04.527Z,-2.18
2023-02-27T04:36:04.874Z,-2.18
2023-02-27T04:37:04.522Z,-2.18
2023-02-27T04:38:04.492Z,-2.20
2023-02-27T04:39:04.465Z,-2.23
2023-02-27T04:40:04.474Z,-2.20
2023-02-27T04:41:05.034Z,-2.21
2023-02-27T04:42:04.471Z,-2.21
2023-02-27T04:43:04.771Z,-2.23
2023-02-27T04:44:04.426Z,-2.23
2023-02-27T04:45:04.420Z,-2.21
2023-02-27T04:46:04.564Z,-2.20
2023-02-27T04:47:04.441Z,-2.21
2023-02-27T04:48:04.383Z,-2.20
2023-02-27T04:49:04.460Z,-2.18
2023-02-27T04:50:04.784Z,-2.20
2023-02-27T04:51:04.359Z,-2.17
2023-02-27T04:52:04.347Z,-2.17
2023-02-27T04:53:04.347Z,-2.18
2023-02-27T04:54:04.338Z,-2.18
2023-02-27T04:55:04.358Z,-2.18
2023-02-27T04:56:04.353Z,-2.18
2023-02-27T04:57:04.573Z,-2.17
2023-02-27T04:58:04.289Z,-2.16
2023-02-27T04:59:04.304Z,-2.16
2023-02-27T05:00:04.279Z,-2.17
2023-02-27T05:01:04.285Z,-2.18
2023-02-27T05:02:04.371Z,-2.20
2023-02-27T05:03:04.266Z,-2.23
2023-02-27T05:04:04.534Z,-2.21
2023-02-27T05:05:04.207Z,-2.23
2023-02-27T05:06:04.207Z,-2.24
2023-02-27T05:07:04.265Z,-2.24
2023-02-27T05:08:04.180Z,-2.21
2023-02-27T05:09:04.178Z,-2.21
2023-02-27T05:10:04.207Z,-2.20
2023-02-27T05:11:05.897Z,-2.20
2023-02-27T05:12:04.184Z,-2.21
2023-02-27T05:13:04.198Z,-2.26
2023-02-27T05:14:04.161Z,-2.26
2023-02-27T05:15:04.108Z,-2.26
2023-02-27T05:16:04.250Z,-2.29
2023-02-27T05:17:04.107Z,-2.33
2023-02-27T05:18:04.508Z,-2.35
2023-02-27T05:19:04.110Z,-2.35
2023-02-27T05:20:04.074Z,-2.36
2023-02-27T05:21:04.043Z,-2.36
2023-02-27T05:22:04.053Z,-2.38
2023-02-27T05:23:04.044Z,-2.42
2023-02-27T05:24:04.062Z,-2.40
2023-02-27T05:25:05.367Z,-2.42
2023-02-27T05:26:04.021Z,-2.42
2023-02-27T05:27:03.994Z,-2.42
2023-02-27T05:28:03.990Z,-2.39
2023-02-27T05:29:04.006Z,-2.39
2023-02-27T05:30:03.949Z,-2.42
2023-02-27T05:31:04.080Z,-2.42
2023-02-27T05:32:04.362Z,-2.42
2023-02-27T05:33:03.927Z,-2.42
2023-02-27T05:34:03.908Z,-2.42
2023-02-27T05:35:03.909Z,-2.39
2023-02-27T05:36:03.991Z,-2.38
2023-02-27T05:37:03.938Z,-2.39
2023-02-27T05:38:03.893Z,-2.39
2023-02-27T05:39:04.141Z,-2.36
2023-02-27T05:40:03.851Z,-2.36
2023-02-27T05:41:03.872Z,-2.33
2023-02-27T05:42:03.875Z,-2.33
2023-02-27T05:43:03.986Z,-2.28
2023-02-27T05:44:03.836Z,-2.28
2023-02-27T05:45:03.847Z,-2.32
2023-02-27T05:46:04.169Z,-2.28
2023-02-27T05:47:03.789Z,-2.28
2023-02-27T05:48:03.786Z,-2.26
2023-02-27T05:49:03.806Z,-2.26
2023-02-27T05:50:03.765Z,-2.21
2023-02-27T05:51:03.753Z,-2.23
2023-02-27T05:52:03.758Z,-2.26
2023-02-27T05:53:04.006Z,-2.21
2023-02-27T05:54:03.745Z,-2.23
2023-02-27T05:55:03.746Z,-2.21
2023-02-27T05:56:03.689Z,-2.24
2023-02-27T05:57:03.692Z,-2.23
2023-02-27T05:58:03.722Z,-2.23
2023-02-27T05:59:03.694Z,-2.20
2023-02-27T06:00:03.941Z,-2.18
2023-02-27T06:01:03.697Z,-2.18
2023-02-27T06:02:03.684Z,-2.18
2023-02-27T06:03:03.658Z,-2.18
2023-02-27T06:04:03.630Z,-2.18
2023-02-27T06:05:03.671Z,-2.20
2023-02-27T06:06:03.593Z,-2.23
2023-02-27T06:07:03.635Z,-2.21
2023-02-27T06:08:03.588Z,-2.23
2023-02-27T06:09:03.562Z,-2.23
2023-02-27T06:10:03.562Z,-2.21
2023-02-27T06:11:03.572Z,-2.24
2023-02-27T06:12:03.538Z,-2.23
2023-02-27T06:13:03.882Z,-2.23
2023-02-27T06:14:04.419Z,-2.24
2023-02-27T06:15:03.548Z,-2.26
2023-02-27T06:16:03.503Z,-2.26
2023-02-27T06:17:03.556Z,-2.26
2023-02-27T06:18:03.520Z,-2.26
2023-02-27T06:19:05.043Z,-2.26
2023-02-27T06:20:03.783Z,-2.28
2023-02-27T06:21:03.508Z,-2.29
2023-02-27T06:22:03.435Z,-2.32
2023-02-27T06:23:03.435Z,-2.33
2023-02-27T06:24:03.415Z,-2.32
2023-02-27T06:25:03.449Z,-2.29
2023-02-27T06:26:03.413Z,-2.33
2023-02-27T06:27:03.693Z,-2.33
2023-02-27T06:28:03.447Z,-2.33
2023-02-27T06:29:03.415Z,-2.33
2023-02-27T06:30:03.347Z,-2.33
2023-02-27T06:31:03.458Z,-2.28
2023-02-27T06:32:03.435Z,-2.28
2023-02-27T06:33:03.326Z,-2.29
2023-02-27T06:34:03.613Z,-2.28
2023-02-27T06:35:03.339Z,-2.26
2023-02-27T06:36:03.378Z,-2.26
2023-02-27T06:37:04.398Z,-2.26
2023-02-27T06:38:03.295Z,-2.23
2023-02-27T06:39:03.262Z,-2.23
2023-02-27T06:40:03.244Z,-2.18
2023-02-27T06:41:03.260Z,-2.20
2023-02-27T06:42:03.276Z,-2.18
2023-02-27T06:43:03.281Z,-2.14
2023-02-27T06:44:03.252Z,-2.08
2023-02-27T06:45:03.226Z,-1.96
2023-02-27T06:46:03.230Z,-1.88
2023-02-27T06:47:03.463Z,-1.75
2023-02-27T06:48:03.207Z,-1.64
2023-02-27T06:49:03.224Z,-1.54
2023-02-27T06:50:03.154Z,-1.42
2023-02-27T06:51:03.215Z,-1.31
2023-02-27T06:52:03.145Z,-1.21
2023-02-27T06:53:03.137Z,-1.09
2023-02-27T06:54:03.134Z,-0.97
2023-02-27T06:55:03.136Z,-0.87
2023-02-27T06:56:03.085Z,-0.75
2023-02-27T06:57:03.086Z,-0.62
2023-02-27T06:58:03.063Z,-0.48
2023-02-27T06:59:03.371Z,-0.37
2023-02-27T07:00:03.048Z,-0.26
2023-02-27T07:01:03.079Z,-0.12
2023-02-27T07:02:03.022Z,0.02
2023-02-27T07:03:03.024Z,0.13
2023-02-27T07:04:03.014Z,0.24
2023-02-27T07:05:08.277Z,0.34
2023-02-27T07:06:02.983Z,0.45
2023-02-27T07:07:33.798Z,0.52
2023-02-27T07:08:03.008Z,0.64
2023-02-27T07:09:06.837Z,0.78
2023-02-27T07:10:02.953Z,0.83
2023-02-27T07:11:03.219Z,0.90
2023-02-27T07:12:02.952Z,1.00
2023-02-27T07:13:03.024Z,1.08
2023-02-27T07:14:02.924Z,1.24
2023-02-27T07:15:02.907Z,1.28
2023-02-27T07:16:02.962Z,1.34
2023-02-27T07:17:02.888Z,1.44
2023-02-27T07:18:03.154Z,1.52
2023-02-27T07:19:02.920Z,1.60
2023-02-27T07:20:02.892Z,1.65
2023-02-27T07:21:02.868Z,1.78
2023-02-27T07:22:02.827Z,1.89
2023-02-27T07:23:02.819Z,1.94
2023-02-27T07:24:02.818Z,1.99
2023-02-27T07:25:03.137Z,2.10
2023-02-27T07:26:02.785Z,2.16
2023-02-27T07:27:02.786Z,2.28
2023-02-27T07:28:02.883Z,2.35
2023-02-27T07:29:02.778Z,2.45
2023-02-27T07:30:02.759Z,2.51
2023-02-27T07:31:02.853Z,2.58
2023-02-27T07:32:03.034Z,2.63
2023-02-27T07:33:02.777Z,2.70
2023-02-27T07:34:02.798Z,2.73
2023-02-27T07:35:02.738Z,2.82
2023-02-27T07:36:02.737Z,2.91
2023-02-27T07:37:02.732Z,3.00
2023-02-27T07:38:02.664Z,3.03
2023-02-27T07:39:02.955Z,3.06
2023-02-27T07:40:02.657Z,3.09
2023-02-27T07:41:02.672Z,3.13
2023-02-27T07:42:03.581Z,3.18
2023-02-27T07:43:02.670Z,3.21
2023-02-27T07:44:02.656Z,3.27
2023-02-27T07:45:02.628Z,3.34
2023-02-27T07:46:02.921Z,3.43
2023-02-27T07:47:02.652Z,3.50
2023-02-27T07:48:02.576Z,3.61
2023-02-27T07:49:02.614Z,3.70
2023-02-27T07:50:03.790Z,3.80
2023-02-27T07:51:02.538Z,3.98
2023-02-27T07:52:02.525Z,4.04
2023-02-27T07:53:02.843Z,4.16
2023-02-27T07:54:02.529Z,4.33
2023-02-27T07:55:02.543Z,4.54
2023-02-27T07:56:02.499Z,4.79
2023-02-27T07:57:02.479Z,5.02
2023-02-27T07:58:02.477Z,5.17
2023-02-27T07:59:02.485Z,5.13
2023-02-27T08:00:02.773Z,5.19
2023-02-27T08:01:02.497Z,5.23
2023-02-27T08:02:02.471Z,5.37
2023-02-27T08:03:02.470Z,5.41
2023-02-27T08:04:02.413Z,5.63
2023-02-27T08:05:02.422Z,5.71
2023-02-27T08:06:02.635Z,5.78
2023-02-27T08:07:02.701Z,5.86
2023-02-27T08:08:02.374Z,6.00
2023-02-27T08:09:02.348Z,6.13
2023-02-27T08:10:02.370Z,6.26
2023-02-27T08:11:02.343Z,6.36
2023-02-27T08:12:02.320Z,6.46
2023-02-27T08:13:02.385Z,6.43
2023-02-27T08:14:03.173Z,6.51
2023-02-27T08:15:02.311Z,6.63
2023-02-27T08:16:02.314Z,6.79
2023-02-27T08:17:02.289Z,6.91
2023-02-27T08:18:02.249Z,7.04
2023-02-27T08:19:02.297Z,6.99
2023-02-27T08:20:02.297Z,6.99
2023-02-27T08:21:02.527Z,7.05
2023-02-27T08:22:02.222Z,7.01
2023-02-27T08:23:02.270Z,7.02
2023-02-27T08:24:02.188Z,6.99
2023-02-27T08:25:02.225Z,7.02
2023-02-27T08:26:02.211Z,6.98
2023-02-27T08:27:02.246Z,6.99
2023-02-27T08:28:02.479Z,7.01
2023-02-27T08:29:02.135Z,6.98
2023-02-27T08:30:02.160Z,6.94
2023-02-27T08:31:02.223Z,6.89
2023-02-27T08:32:02.196Z,6.94
2023-02-27T08:33:02.091Z,6.90
2023-02-27T08:34:09.770Z,6.86
2023-02-27T08:35:02.157Z,6.83
2023-02-27T08:36:02.164Z,6.69
2023-02-27T08:37:02.155Z,6.58
2023-02-27T08:38:02.044Z,6.69
2023-02-27T08:39:02.033Z,6.73
2023-02-27T08:40:02.050Z,6.84
2023-02-27T08:41:02.335Z,6.72
2023-02-27T08:42:02.019Z,6.61
2023-02-27T08:43:02.071Z,6.56
2023-02-27T08:44:01.983Z,6.62
2023-02-27T08:45:01.978Z,6.68
2023-02-27T08:46:02.017Z,6.87
2023-02-27T08:47:01.986Z,6.87
2023-02-27T08:48:02.229Z,6.79
2023-02-27T08:49:01.979Z,6.86
2023-02-27T08:50:01.937Z,6.83
2023-02-27T08:51:01.960Z,6.79
2023-02-27T08:52:01.896Z,6.80
2023-02-27T08:53:01.872Z,6.81
2023-02-27T08:54:01.878Z,6.56
2023-02-27T08:55:02.236Z,6.68
2023-02-27T08:56:01.867Z,6.80
2023-02-27T08:57:01.844Z,6.81
2023-02-27T08:58:01.820Z,6.81
2023-02-27T08:59:01.849Z,6.89
2023-02-27T09:00:01.909Z,6.89
2023-02-27T09:01:01.913Z,7.08
2023-02-27T09:02:01.777Z,7.22
2023-02-27T09:03:01.840Z,7.41
2023-02-27T09:04:01.770Z,7.58
2023-02-27T09:05:01.759Z,7.72
2023-02-27T09:06:01.774Z,7.66
2023-02-27T09:07:01.788Z,7.69
2023-02-27T09:08:02.046Z,7.63
2023-02-27T09:09:01.742Z,7.52
2023-02-27T09:10:01.727Z,7.23
2023-02-27T09:11:01.704Z,7.17
2023-02-27T09:12:01.702Z,7.40
2023-02-27T09:13:01.757Z,7.67
2023-02-27T09:14:01.669Z,7.93
2023-02-27T09:15:01.691Z,8.17
2023-02-27T09:16:01.665Z,8.28
2023-02-27T09:17:01.648Z,8.08
2023-02-27T09:18:01.624Z,7.90
2023-02-27T09:19:01.694Z,7.90
2023-02-27T09:20:01.882Z,7.94
2023-02-27T09:21:01.600Z,8.08
2023-02-27T09:22:01.594Z,8.08
2023-02-27T09:23:01.599Z,8.12
2023-02-27T09:24:17.282Z,8.08
2023-02-27T09:25:01.639Z,7.90
2023-02-27T09:26:01.570Z,7.69
2023-02-27T09:27:01.513Z,7.69
2023-02-27T09:28:01.524Z,7.92
2023-02-27T09:29:01.503Z,8.30
2023-02-27T09:30:01.508Z,8.48
2023-02-27T09:31:01.542Z,8.55
2023-02-27T09:32:01.935Z,8.81
2023-02-27T09:33:01.479Z,9.20
2023-02-27T09:34:01.461Z,9.58
2023-02-27T09:35:01.435Z,9.99
2023-02-27T09:36:01.529Z,10.10
2023-02-27T09:37:01.453Z,9.91
2023-02-27T09:38:01.447Z,9.96
2023-02-27T09:39:01.757Z,9.94
2023-02-27T09:40:01.394Z,9.78
2023-02-27T09:41:01.409Z,9.94
2023-02-27T09:42:01.408Z,10.19
2023-02-27T09:43:01.468Z,10.51
2023-02-27T09:44:01.385Z,10.65
2023-02-27T09:45:02.940Z,10.92
2023-02-27T09:46:01.441Z,11.27
2023-02-27T09:47:01.314Z,11.46
2023-02-27T09:48:01.308Z,11.53
2023-02-27T09:49:01.408Z,11.56
2023-02-27T09:50:01.336Z,11.44
2023-02-27T09:51:01.272Z,11.38
2023-02-27T09:52:02.373Z,11.16
2023-02-27T09:53:01.250Z,11.24
2023-02-27T09:54:01.249Z,11.24
2023-02-27T09:55:01.281Z,11.25
2023-02-27T09:56:02.130Z,11.16
2023-02-27T09:57:01.233Z,11.01
2023-02-27T09:58:01.234Z,10.86
2023-02-27T09:59:01.475Z,10.77
2023-02-27T10:00:01.210Z,10.89
2023-02-27T10:01:01.250Z,10.98
2023-02-27T10:02:01.285Z,11.14
2023-02-27T10:03:01.185Z,11.21
2023-02-27T10:04:01.144Z,11.13
2023-02-27T10:05:01.153Z,11.09
2023-02-27T10:06:01.474Z,11.03
2023-02-27T10:07:01.181Z,11.03
2023-02-27T10:08:01.153Z,11.13
2023-02-27T10:09:01.121Z,11.06
2023-02-27T10:10:01.100Z,11.16
2023-02-27T10:11:01.097Z,10.86
2023-02-27T10:12:01.041Z,10.68
2023-02-27T10:13:01.406Z,10.33
2023-02-27T10:14:01.013Z,10.19
2023-02-27T10:15:01.009Z,9.82
2023-02-27T10:16:01.082Z,9.43
2023-02-27T10:17:01.023Z,9.15
2023-02-27T10:18:07.063Z,9.31
2023-02-27T10:19:01.044Z,9.68
2023-02-27T10:20:00.976Z,10.21
2023-02-27T10:21:00.957Z,10.24
2023-02-27T10:22:00.958Z,10.07
2023-02-27T10:23:00.990Z,10.15
2023-02-27T10:24:00.953Z,10.28
2023-02-27T10:25:00.999Z,10.30
2023-02-27T10:26:00.976Z,9.35
2023-02-27T10:27:00.901Z,8.68
2023-02-27T10:28:00.971Z,7.92
2023-02-27T10:29:00.913Z,8.12
2023-02-27T10:30:00.839Z,8.66
2023-02-27T10:31:01.291Z,9.09
2023-02-27T10:32:00.924Z,8.48
2023-02-27T10:33:00.839Z,8.00
2023-02-27T10:34:00.814Z,8.14
2023-02-27T10:35:00.835Z,8.87
2023-02-27T10:36:03.102Z,9.34
2023-02-27T10:37:00.821Z,9.25
2023-02-27T10:38:01.297Z,9.40
2023-02-27T10:39:00.769Z,9.61
2023-02-27T10:40:00.746Z,9.96
2023-02-27T10:41:00.753Z,10.01
2023-02-27T10:42:00.731Z,9.73
2023-02-27T10:43:01.062Z,10.24
2023-02-27T10:44:00.726Z,10.44
2023-02-27T10:45:00.757Z,10.12
2023-02-27T10:46:00.765Z,9.99
2023-02-27T10:47:00.665Z,9.50
2023-02-27T10:48:00.665Z,8.94
2023-02-27T10:49:00.683Z,8.33
2023-02-27T10:50:00.976Z,8.71
2023-02-27T10:51:00.695Z,8.68
2023-02-27T10:52:00.636Z,8.63
2023-02-27T10:53:00.601Z,8.78
2023-02-27T10:54:00.608Z,9.49
2023-02-27T10:55:00.641Z,10.17
2023-02-27T10:56:00.693Z,10.56
2023-02-27T10:57:00.879Z,11.19
2023-02-27T10:58:00.598Z,11.52
2023-02-27T10:59:00.556Z,11.67
2023-02-27T11:00:00.690Z,11.35
2023-02-27T11:01:00.756Z,10.78
2023-02-27T11:02:00.747Z,10.86
2023-02-27T11:03:00.501Z,11.09
2023-02-27T11:04:00.809Z,11.46
2023-02-27T11:05:00.514Z,11.38
2023-02-27T11:06:00.482Z,11.57
2023-02-27T11:07:00.586Z,11.24
2023-02-27T11:08:00.661Z,10.52
2023-02-27T11:09:00.712Z,9.91
2023-02-27T11:10:00.464Z,9.61
2023-02-27T11:11:00.720Z,9.25
2023-02-27T11:12:00.390Z,8.79
2023-02-27T11:13:01.462Z,8.62
2023-02-27T11:14:01.426Z,8.48
2023-02-27T11:15:00.403Z,8.22
2023-02-27T11:16:00.504Z,8.02
2023-02-27T11:17:00.383Z,7.81
2023-02-27T11:18:00.608Z,7.34
2023-02-27T11:19:00.357Z,7.78
2023-02-27T11:20:00.361Z,8.32
2023-02-27T11:21:00.306Z,8.79
2023-02-27T11:22:00.377Z,9.30
2023-02-27T11:23:00.285Z,9.82
2023-02-27T11:24:00.507Z,10.30
2023-02-27T11:25:01.365Z,10.71
2023-02-27T11:26:01.154Z,10.74
2023-02-27T11:27:00.265Z,10.47
2023-02-27T11:28:00.316Z,10.40
2023-02-27T11:29:00.212Z,10.15
2023-02-27T11:30:00.260Z,10.12
2023-02-27T11:31:00.314Z,10.10
2023-02-27T11:32:00.691Z,9.88
2023-02-27T11:33:00.273Z,10.21
2023-02-27T11:34:00.206Z,10.58
2023-02-27T11:35:00.271Z,10.55
2023-02-27T11:36:00.226Z,10.74
2023-02-27T11:37:00.221Z,10.34
2023-02-27T11:38:00.209Z,10.10
2023-02-27T11:39:00.417Z,10.46
2023-02-27T11:40:00.124Z,9.89
2023-02-27T11:41:00.106Z,9.56
2023-02-27T11:42:00.138Z,8.93
2023-02-27T11:43:00.112Z,8.91
2023-02-27T11:44:00.267Z,8.54
2023-02-27T11:45:00.049Z,8.26
2023-02-27T11:46:12.683Z,8.03
2023-02-27T11:47:00.184Z,8.04
2023-02-27T11:48:01.357Z,8.36
2023-02-27T11:49:00.122Z,8.44
2023-02-27T11:50:00.127Z,8.71
2023-02-27T11:51:00.008Z,8.91
2023-02-27T11:52:00.005Z,9.63
2023-02-27T11:53:00.262Z,9.91
2023-02-27T11:54:00.162Z,10.06
2023-02-27T11:55:00.011Z,10.43
2023-02-27T11:56:00.011Z,10.39
2023-02-27T11:56:59.985Z,10.25
2023-02-27T11:58:00.034Z,10.39
2023-02-27T11:58:59.931Z,10.59
2023-02-27T12:00:00.191Z,10.42
2023-02-27T12:01:00.033Z,10.43
2023-02-27T12:01:59.967Z,10.73
2023-02-27T12:03:00.089Z,11.02
2023-02-27T12:04:00.118Z,10.78
2023-02-27T12:04:59.863Z,11.28
2023-02-27T12:06:00.029Z,11.87
2023-02-27T12:07:00.272Z,11.90
2023-02-27T12:07:59.920Z,11.50
2023-02-27T12:08:59.789Z,11.49
2023-02-27T12:10:00.070Z,10.91
2023-02-27T12:11:13.054Z,10.39
2023-02-27T12:11:59.773Z,10.88
2023-02-27T12:13:00.144Z,10.98
2023-02-27T12:13:59.793Z,10.83
2023-02-27T12:14:59.854Z,10.68
2023-02-27T12:15:59.752Z,11.16
2023-02-27T12:16:59.732Z,11.34
2023-02-27T12:17:59.725Z,10.84
2023-02-27T12:18:59.973Z,11.02
2023-02-27T12:19:59.739Z,10.70
2023-02-27T12:20:59.712Z,10.21
2023-02-27T12:21:59.777Z,10.53
2023-02-27T12:22:59.651Z,10.77
2023-02-27T12:23:59.733Z,10.86
2023-02-27T12:24:59.691Z,10.89
2023-02-27T12:25:59.952Z,10.95
2023-02-27T12:26:59.674Z,11.54
2023-02-27T12:27:59.606Z,11.87
2023-02-27T12:28:59.566Z,11.31
2023-02-27T12:29:59.573Z,10.89
2023-02-27T12:30:59.577Z,10.06
2023-02-27T12:31:59.618Z,9.99
2023-02-27T12:32:59.551Z,10.46
2023-02-27T12:33:59.534Z,10.76
2023-02-27T12:34:59.530Z,11.09
2023-02-27T12:35:59.566Z,11.54
2023-02-27T12:36:59.520Z,11.99
2023-02-27T12:37:59.785Z,11.86
2023-02-27T12:38:59.484Z,11.17
2023-02-27T12:39:59.544Z,11.14
2023-02-27T12:40:59.504Z,11.44
2023-02-27T12:41:59.407Z,11.94
2023-02-27T12:42:59.522Z,12.19
2023-02-27T12:43:59.422Z,12.12
2023-02-27T12:44:59.462Z,12.15
2023-02-27T12:45:59.578Z,12.27
2023-02-27T12:46:59.437Z,12.33
2023-02-27T12:47:59.353Z,12.60
2023-02-27T12:48:59.434Z,12.54
2023-02-27T12:49:59.662Z,11.67
2023-02-27T12:50:59.355Z,11.56
2023-02-27T12:51:59.327Z,11.78
2023-02-27T12:52:59.321Z,12.04
2023-02-27T12:53:59.293Z,12.11
2023-02-27T12:54:59.314Z,12.08
2023-02-27T12:55:59.342Z,11.94
2023-02-27T12:56:59.547Z,11.89
2023-02-27T12:57:59.242Z,11.94
2023-02-27T12:58:59.247Z,12.13